Time;durP1;ratioP1;P1;durP2;ratioP2;P2;SDS_P1;SDS_P2;PMS_P1;PMS_P2;Temp;Humidity;BMP_temperature;BMP_pressure;BME280_temperature;BME280_humidity;BME280_pressure;Samples;Min_cycle;Max_cycle;Signal;HPM_P1;HPM_P2
2024/04/07 00:01:34;;;;;;;7.10;2.80;;;20.00;1.00;;;;;;5013974;28;20637;-77
2024/04/07 00:04:00;;;;;;;7.23;2.57;;;20.10;1.00;;;;;;5013921;28;20167;-81
2024/04/07 00:06:33;;;;;;;9.63;2.90;;;20.10;1.00;;;;;;5013832;28;20696;-79
2024/04/07 00:08:59;;;;;;;8.83;2.80;;;19.90;1.00;;;;;;5012560;28;20170;-80
2024/04/07 00:11:25;;;;;;;6.10;2.73;;;19.80;1.00;;;;;;5013794;28;20183;-82
2024/04/07 00:13:54;;;;;;;9.67;3.07;;;19.70;1.00;;;;;;5012274;28;20588;-80
2024/04/07 00:16:20;;;;;;;5.90;2.70;;;19.80;1.00;;;;;;5012409;28;20569;-79
2024/04/07 00:18:46;;;;;;;7.60;2.57;;;19.80;1.00;;;;;;5045122;28;20602;-80
2024/04/07 00:21:12;;;;;;;13.43;3.20;;;19.70;1.00;;;;;;5013524;28;20207;-79
2024/04/07 00:23:38;;;;;;;8.87;3.20;;;19.70;1.00;;;;;;5013448;28;20260;-77
2024/04/07 00:26:04;;;;;;;13.13;3.03;;;19.70;1.00;;;;;;5013564;28;20320;-82
2024/04/07 00:28:30;;;;;;;8.37;2.50;;;19.70;1.00;;;;;;5045031;28;20541;-78
2024/04/07 00:30:56;;;;;;;7.37;2.63;;;19.60;1.00;;;;;;5013313;28;20273;-78
2024/04/07 00:33:22;;;;;;;8.50;2.77;;;19.70;1.00;;;;;;5013395;28;20180;-82
2024/04/07 00:36:00;;;;;;;10.47;3.60;;;19.70;1.00;;;;;;5012273;28;20205;-77
2024/04/07 00:38:30;;;;;;;8.33;2.57;;;19.60;1.00;;;;;;5013173;28;20177;-78
2024/04/07 00:40:57;;;;;;;6.47;2.67;;;19.50;1.00;;;;;;5013388;28;20177;-81
2024/04/07 00:43:28;;;;;;;8.30;3.53;;;19.40;1.00;;;;;;5013409;28;20536;-77
2024/04/07 00:45:54;;;;;;;9.13;3.00;;;19.30;1.00;;;;;;5012666;28;20175;-78
2024/04/07 00:48:20;;;;;;;8.03;2.47;;;19.20;1.00;;;;;;5012674;28;20661;-78
2024/04/07 00:50:53;;;;;;;4.97;2.47;;;19.10;1.00;;;;;;5012605;28;20257;-78
2024/04/07 00:53:19;;;;;;;7.83;2.17;;;19.00;1.00;;;;;;5012476;28;20233;-79
2024/04/07 00:55:45;;;;;;;5.63;2.63;;;18.90;1.00;;;;;;5011681;28;20249;-78
2024/04/07 00:58:13;;;;;;;6.53;2.70;;;18.80;1.00;;;;;;5013229;28;20172;-81
2024/04/07 01:00:42;;;;;;;6.23;2.50;;;18.80;1.00;;;;;;5012842;28;20174;-83
2024/04/07 01:03:08;;;;;;;10.23;2.00;;;18.80;1.00;;;;;;5012528;28;20162;-82
2024/04/07 01:05:46;;;;;;;4.67;2.20;;;18.80;1.00;;;;;;5011101;28;20261;-77
2024/04/07 01:08:14;;;;;;;9.10;2.13;;;18.90;1.00;;;;;;5012977;28;20543;-79
2024/04/07 01:10:41;;;;;;;6.10;2.30;;;18.80;1.00;;;;;;5012747;28;20187;-82
2024/04/07 01:13:07;;;;;;;5.70;1.57;;;18.70;1.00;;;;;;5012136;28;20190;-79
2024/04/07 01:15:34;;;;;;;5.13;1.70;;;18.70;1.00;;;;;;5011984;28;20293;-80
2024/04/07 01:17:59;;;;;;;5.53;1.80;;;18.60;1.00;;;;;;5012311;28;20522;-77
2024/04/07 01:20:26;;;;;;;4.07;1.40;;;18.60;1.00;;;;;;5012507;28;20173;-79
2024/04/07 01:22:53;;;;;;;5.83;1.80;;;18.60;1.00;;;;;;5012756;28;20162;-80
2024/04/07 01:25:19;;;;;;;5.73;1.53;;;18.60;1.00;;;;;;5012957;28;20205;-79
2024/04/07 01:28:01;;;;;;;3.40;1.47;;;18.50;1.00;;;;;;5011839;28;20181;-79
2024/04/07 01:30:28;;;;;;;6.20;1.30;;;18.50;1.00;;;;;;5011687;28;20178;-77
2024/04/07 01:32:54;;;;;;;3.53;1.33;;;18.50;1.00;;;;;;5012556;28;20654;-80
2024/04/07 01:35:20;;;;;;;2.87;1.47;;;18.50;1.00;;;;;;5011923;28;20224;-81
2024/04/07 01:37:45;;;;;;;4.70;1.33;;;18.50;1.00;;;;;;5012522;28;20188;-79
2024/04/07 01:40:11;;;;;;;4.27;1.30;;;18.40;1.00;;;;;;5011356;28;20173;-82
2024/04/07 01:42:39;;;;;;;4.50;1.20;;;18.40;1.00;;;;;;5012564;28;20178;-81
2024/04/07 01:45:06;;;;;;;4.43;1.37;;;18.40;1.00;;;;;;5012546;28;20235;-81
2024/04/07 01:47:32;;;;;;;5.67;1.40;;;18.30;1.00;;;;;;5012195;28;20176;-78
2024/04/07 01:49:58;;;;;;;2.60;1.10;;;18.30;1.00;;;;;;5011861;28;20175;-79
2024/04/07 01:52:24;;;;;;;4.67;1.47;;;18.20;1.00;;;;;;5012303;28;20165;-78
2024/04/07 01:54:49;;;;;;;1.93;1.10;;;18.10;1.00;;;;;;5011666;28;20170;-81
2024/04/07 01:57:15;;;;;;;3.00;1.13;;;18.10;1.00;;;;;;5012216;28;20170;-83
2024/04/07 01:59:41;;;;;;;2.17;1.00;;;18.00;1.00;;;;;;5011217;28;20533;-79
2024/04/07 02:02:07;;;;;;;3.00;1.20;;;17.80;1.00;;;;;;5010756;28;20536;-81
2024/04/07 02:04:33;;;;;;;2.93;1.10;;;17.80;1.00;;;;;;5011464;28;20729;-79
2024/04/07 02:06:59;;;;;;;3.00;1.10;;;17.80;1.00;;;;;;5044061;28;20237;-79
2024/04/07 02:09:25;;;;;;;3.40;1.03;;;17.70;1.00;;;;;;5012267;28;20171;-77
2024/04/07 02:11:51;;;;;;;2.60;1.07;;;17.70;1.00;;;;;;5012194;28;20190;-80
2024/04/07 02:14:17;;;;;;;3.03;1.17;;;17.70;1.00;;;;;;5012150;28;20673;-80
2024/04/07 02:16:42;;;;;;;3.70;1.13;;;17.60;1.00;;;;;;5011938;28;20229;-77
2024/04/07 02:19:08;;;;;;;3.37;1.07;;;17.50;1.00;;;;;;5010725;28;20193;-80
2024/04/07 02:21:34;;;;;;;2.77;1.23;;;17.40;1.00;;;;;;5012301;28;20259;-81
2024/04/07 02:24:00;;;;;;;2.97;0.90;;;17.40;1.30;;;;;;5011121;28;20199;-79
2024/04/07 02:26:26;;;;;;;3.13;0.90;;;17.50;2.60;;;;;;5011845;28;20192;-78
2024/04/07 02:28:52;;;;;;;2.80;0.80;;;17.40;3.90;;;;;;5012129;28;20171;-78
2024/04/07 02:31:18;;;;;;;2.47;1.03;;;17.40;7.10;;;;;;5012147;28;20171;-80
2024/04/07 02:33:47;;;;;;;3.67;1.00;;;17.40;5.60;;;;;;5010812;28;20181;-78
2024/04/07 02:36:13;;;;;;;2.83;1.20;;;17.30;7.90;;;;;;5011706;28;20214;-77
2024/04/07 02:38:39;;;;;;;2.53;0.80;;;17.20;12.90;;;;;;5013705;28;20185;-80
2024/04/07 02:41:05;;;;;;;2.90;0.90;;;17.20;13.50;;;;;;5015495;28;20176;-77
2024/04/07 02:43:31;;;;;;;2.67;0.80;;;17.20;14.40;;;;;;5015521;28;20219;-77
2024/04/07 02:48:43;;;;;;;1.30;0.67;;;17.10;17.10;;;;;;5014574;28;20178;-79
2024/04/07 02:51:09;;;;;;;2.57;0.90;;;17.00;16.10;;;;;;5047185;28;20189;-79
2024/04/07 02:53:35;;;;;;;1.53;0.60;;;17.00;18.20;;;;;;5015425;28;20162;-80
2024/04/07 02:56:01;;;;;;;0.90;0.60;;;16.90;16.60;;;;;;5015262;28;20252;-82
2024/04/07 02:58:26;;;;;;;2.60;0.70;;;16.90;18.30;;;;;;5012867;28;20304;-82
2024/04/07 03:00:52;;;;;;;1.70;0.90;;;16.90;15.70;;;;;;5014795;28;20626;-79
2024/04/07 03:03:17;;;;;;;1.63;0.80;;;16.90;18.00;;;;;;5015130;28;20716;-80
2024/04/07 03:05:43;;;;;;;1.50;0.87;;;16.80;21.60;;;;;;5015267;28;20185;-79
2024/04/07 03:08:09;;;;;;;2.90;0.73;;;16.80;22.00;;;;;;5015129;28;20532;-77
2024/04/07 03:10:34;;;;;;;1.67;0.80;;;16.80;21.60;;;;;;5015084;28;20201;-80
2024/04/07 03:13:00;;;;;;;3.13;0.80;;;16.80;22.70;;;;;;5013518;28;20564;-78
2024/04/07 03:15:26;;;;;;;2.93;0.70;;;16.70;25.60;;;;;;5012843;28;20220;-81
2024/04/07 03:17:52;;;;;;;1.90;0.90;;;16.70;26.40;;;;;;5014708;28;20166;-78
2024/04/07 03:20:18;;;;;;;3.03;0.90;;;16.60;27.40;;;;;;5013711;28;20177;-79
2024/04/07 03:22:43;;;;;;;1.60;0.90;;;16.70;29.00;;;;;;5014619;28;20375;-82
2024/04/07 03:25:09;;;;;;;2.13;0.80;;;16.70;29.20;;;;;;5013170;28;20174;-78
2024/04/07 03:27:35;;;;;;;1.87;0.80;;;16.60;29.90;;;;;;5014618;28;20167;-78
2024/04/07 03:30:01;;;;;;;2.60;1.20;;;16.60;29.50;;;;;;5017636;28;20526;-83
2024/04/07 03:32:27;;;;;;;4.23;1.13;;;16.60;29.90;;;;;;5016667;28;20217;-78
2024/04/07 03:34:52;;;;;;;2.67;1.00;;;16.50;31.60;;;;;;5014934;28;20650;-80
2024/04/07 03:37:18;;;;;;;2.23;0.80;;;16.50;31.40;;;;;;5014363;28;20706;-80
2024/04/07 03:39:43;;;;;;;2.33;0.70;;;16.50;32.20;;;;;;5014402;28;20168;-79
2024/04/07 03:42:09;;;;;;;1.87;0.73;;;16.50;30.50;;;;;;5014467;28;20176;-79
2024/04/07 03:44:35;;;;;;;1.43;0.60;;;16.50;31.40;;;;;;5013539;28;20203;-78
2024/04/07 03:47:00;;;;;;;2.13;0.80;;;16.50;35.00;;;;;;5013897;28;20531;-80
2024/04/07 03:49:26;;;;;;;4.87;0.90;;;16.50;37.60;;;;;;5013446;28;20681;-79
2024/04/07 03:51:52;;;;;;;1.20;0.67;;;16.40;42.10;;;;;;5014002;28;20167;-79
2024/04/07 03:54:19;;;;;;;3.40;0.93;;;16.40;41.00;;;;;;5013610;28;20193;-80
2024/04/07 03:56:45;;;;;;;2.13;0.70;;;16.30;40.60;;;;;;5013941;28;20697;-77
2024/04/07 03:59:11;;;;;;;3.10;0.80;;;16.30;41.80;;;;;;5012487;28;20257;-80
2024/04/07 04:01:39;;;;;;;3.43;0.80;;;16.20;37.90;;;;;;5013677;28;20250;-84
2024/04/07 04:04:06;;;;;;;3.83;1.00;;;16.20;37.10;;;;;;5013283;28;20167;-79
2024/04/07 04:06:31;;;;;;;1.93;0.90;;;16.20;34.60;;;;;;5013841;28;20285;-80
2024/04/07 04:08:57;;;;;;;2.80;0.70;;;16.20;34.60;;;;;;5013479;28;20258;-81
2024/04/07 04:11:23;;;;;;;2.30;0.93;;;16.20;35.40;;;;;;5012937;28;20176;-80
2024/04/07 04:13:50;;;;;;;3.07;0.90;;;16.20;35.80;;;;;;5013004;28;20178;-77
2024/04/07 04:16:18;;;;;;;2.00;0.80;;;16.20;35.90;;;;;;5013640;28;20311;-81
2024/04/07 04:18:44;;;;;;;4.40;1.10;;;16.20;37.00;;;;;;5013301;28;20206;-78
2024/04/07 04:21:11;;;;;;;2.17;1.03;;;16.20;38.40;;;;;;5013842;28;20205;-83
2024/04/07 04:23:39;;;;;;;2.13;1.03;;;16.20;38.70;;;;;;5013660;28;20203;-80
2024/04/07 04:26:05;;;;;;;2.67;0.90;;;16.20;39.60;;;;;;5013661;28;20228;-83
2024/04/07 04:28:32;;;;;;;3.17;1.30;;;16.20;40.70;;;;;;5013219;28;20649;-82
2024/04/07 04:31:06;;;;;;;2.90;1.47;;;16.20;39.90;;;;;;5013764;28;20170;-79
2024/04/07 04:33:32;;;;;;;3.10;1.00;;;16.20;42.30;;;;;;5013243;28;20201;-81
2024/04/07 04:35:58;;;;;;;3.03;1.13;;;16.20;44.30;;;;;;5013273;28;20253;-81
2024/04/07 04:38:23;;;;;;;5.20;1.50;;;16.10;46.00;;;;;;5013249;28;20182;-79
2024/04/07 04:40:56;;;;;;;2.67;1.07;;;16.20;46.00;;;;;;5013001;28;20171;-80
2024/04/07 04:43:23;;;;;;;3.20;0.93;;;16.10;46.20;;;;;;5012355;28;20190;-82
2024/04/07 04:46:06;;;;;;;2.07;0.80;;;16.10;49.30;;;;;;5013336;28;20240;-82
2024/04/07 04:48:35;;;;;;;4.20;1.00;;;16.10;50.90;;;;;;5013283;28;20646;-83
2024/04/07 04:51:01;;;;;;;2.47;1.10;;;16.10;52.50;;;;;;5011953;28;20592;-80
2024/04/07 04:53:28;;;;;;;2.80;1.23;;;16.10;53.40;;;;;;5012171;28;20281;-83
2024/04/07 04:56:01;;;;;;;2.47;1.00;;;16.10;53.80;;;;;;5013266;28;20205;-80
2024/04/07 04:58:28;;;;;;;4.43;1.27;;;16.00;55.60;;;;;;5013184;28;20171;-78
2024/04/07 05:00:54;;;;;;;4.80;1.40;;;16.00;56.00;;;;;;5011582;28;20167;-80
2024/04/07 05:03:19;;;;;;;2.90;1.43;;;16.00;56.60;;;;;;5012830;28;20172;-82
2024/04/07 05:05:45;;;;;;;5.27;1.10;;;16.00;56.60;;;;;;5012944;28;20187;-77
2024/04/07 05:08:11;;;;;;;1.63;0.97;;;15.90;57.90;;;;;;5012960;28;20182;-76
2024/04/07 05:10:37;;;;;;;4.23;1.40;;;15.90;58.60;;;;;;5011890;28;20532;-78
2024/04/07 05:13:02;;;;;;;3.30;1.13;;;15.90;58.20;;;;;;5012846;28;20221;-79
2024/04/07 05:15:28;;;;;;;4.53;1.20;;;15.90;59.70;;;;;;5012985;28;20197;-83
2024/04/07 05:17:54;;;;;;;3.43;1.00;;;15.90;59.80;;;;;;5012944;28;20189;-79
2024/04/07 05:20:19;;;;;;;3.70;1.47;;;15.90;58.60;;;;;;5012143;28;20167;-82
2024/04/07 05:22:45;;;;;;;2.67;1.37;;;15.90;57.80;;;;;;5012940;28;20171;-78
2024/04/07 05:25:11;;;;;;;3.47;1.20;;;15.90;57.60;;;;;;5012870;28;20175;-84
2024/04/07 05:27:37;;;;;;;4.10;1.20;;;15.90;56.80;;;;;;5012856;28;20171;-78
2024/04/07 05:30:03;;;;;;;4.40;1.20;;;15.90;58.20;;;;;;5013076;28;20177;-79
2024/04/07 05:32:30;;;;;;;2.60;0.90;;;16.00;54.40;;;;;;5013965;28;20189;-81
2024/04/07 05:34:56;;;;;;;3.33;1.33;;;15.90;55.70;;;;;;5014651;28;20635;-78
2024/04/07 05:37:21;;;;;;;3.53;1.10;;;15.90;56.10;;;;;;5045671;28;20197;-82
2024/04/07 05:39:49;;;;;;;4.87;1.67;;;15.90;57.30;;;;;;5012526;28;20170;-79
2024/04/07 05:42:15;;;;;;;8.07;2.07;;;15.90;57.40;;;;;;5012430;28;20170;-80
2024/04/07 05:44:40;;;;;;;3.80;1.67;;;16.00;55.90;;;;;;5012582;28;20650;-78
2024/04/07 05:47:08;;;;;;;3.07;1.53;;;15.90;55.80;;;;;;5010327;28;20178;-80
2024/04/07 05:49:34;;;;;;;4.80;1.70;;;15.90;56.00;;;;;;5012553;28;20167;-78
2024/04/07 05:51:59;;;;;;;6.20;1.30;;;15.90;55.30;;;;;;5012393;28;20630;-82
2024/04/07 05:54:29;;;;;;;3.60;1.43;;;16.00;54.60;;;;;;5012639;28;20166;-78
2024/04/07 05:56:54;;;;;;;5.13;1.30;;;16.00;53.00;;;;;;5012011;28;20256;-79
2024/04/07 05:59:20;;;;;;;4.77;1.67;;;15.90;52.80;;;;;;5011918;28;20178;-77
2024/04/07 06:01:46;;;;;;;3.17;1.40;;;16.00;53.20;;;;;;5011944;28;20181;-81
2024/04/07 06:04:13;;;;;;;5.57;1.60;;;15.90;53.90;;;;;;5012267;28;20163;-78
2024/04/07 06:06:39;;;;;;;5.50;1.80;;;15.90;54.40;;;;;;5011210;28;20190;-77
2024/04/07 06:09:05;;;;;;;4.23;1.90;;;16.00;53.40;;;;;;5012375;28;20639;-77
2024/04/07 06:11:30;;;;;;;4.77;1.60;;;16.00;53.70;;;;;;5011839;28;20178;-80
2024/04/07 06:13:56;;;;;;;4.20;1.50;;;16.00;53.20;;;;;;5014876;28;20166;-80
2024/04/07 06:16:22;;;;;;;6.33;1.60;;;16.10;50.20;;;;;;5015237;28;20198;-78
2024/04/07 06:18:48;;;;;;;4.17;1.50;;;16.10;49.80;;;;;;5015557;28;20178;-77
2024/04/07 06:21:13;;;;;;;3.73;1.37;;;16.20;48.10;;;;;;5015671;28;20185;-78
2024/04/07 06:23:42;;;;;;;5.83;1.70;;;16.20;47.50;;;;;;5015418;28;20630;-79
2024/04/07 06:26:08;;;;;;;3.50;1.77;;;16.10;49.40;;;;;;5015298;28;20654;-78
2024/04/07 06:28:34;;;;;;;4.33;1.30;;;16.10;49.10;;;;;;5015144;28;20159;-78
2024/04/07 06:31:00;;;;;;;3.93;1.43;;;16.10;47.70;;;;;;5014487;28;20172;-79
2024/04/07 06:33:26;;;;;;;3.60;1.93;;;16.10;49.00;;;;;;5015769;28;20578;-80
2024/04/07 06:35:53;;;;;;;3.20;1.40;;;16.10;49.60;;;;;;5015517;28;20207;-82
2024/04/07 06:38:19;;;;;;;4.77;1.50;;;16.10;49.20;;;;;;5015227;28;20234;-82
2024/04/07 06:40:45;;;;;;;4.50;1.63;;;16.00;49.50;;;;;;5014445;28;20172;-80
2024/04/07 06:43:10;;;;;;;3.20;1.40;;;16.10;47.40;;;;;;5015518;28;20249;-78
2024/04/07 06:45:36;;;;;;;3.93;1.53;;;16.00;48.70;;;;;;5015627;28;20177;-79
2024/04/07 06:48:02;;;;;;;4.70;1.53;;;16.00;49.70;;;;;;5016371;28;20745;-81
2024/04/07 06:50:27;;;;;;;3.13;1.30;;;16.00;49.50;;;;;;5014669;28;20483;-78
2024/04/07 06:52:53;;;;;;;5.03;1.50;;;16.00;50.50;;;;;;5014743;28;20205;-81
2024/04/07 06:55:19;;;;;;;6.00;1.67;;;16.00;50.70;;;;;;5006474;28;20195;-81
2024/04/07 06:57:45;;;;;;;6.30;1.90;;;16.10;48.10;;;;;;4994458;28;20627;-80
2024/04/07 07:00:12;;;;;;;6.67;1.73;;;16.30;44.00;;;;;;4995572;28;20624;-79
2024/04/07 07:02:38;;;;;;;3.57;1.30;;;16.30;43.50;;;;;;4995281;28;20163;-80
2024/04/07 07:05:04;;;;;;;4.63;1.27;;;16.40;41.70;;;;;;4995120;28;20644;-79
2024/04/07 07:07:30;;;;;;;4.67;1.60;;;16.40;42.20;;;;;;4994755;28;20247;-82
2024/04/07 07:09:57;;;;;;;4.23;1.40;;;16.50;41.60;;;;;;5026849;28;20192;-84
2024/04/07 07:12:23;;;;;;;3.57;1.50;;;16.50;41.20;;;;;;5026636;28;20564;-77
2024/04/07 07:14:49;;;;;;;2.77;1.20;;;16.50;40.90;;;;;;4994718;28;20177;-77
2024/04/07 07:17:15;;;;;;;2.50;1.23;;;16.70;37.30;;;;;;4994392;28;20175;-79
2024/04/07 07:19:41;;;;;;;3.60;1.50;;;16.70;35.20;;;;;;4995215;28;20174;-81
2024/04/07 07:22:06;;;;;;;3.07;1.30;;;16.70;34.60;;;;;;4994562;28;20174;-78
2024/04/07 07:24:32;;;;;;;4.23;1.77;;;16.80;34.10;;;;;;4994120;28;20173;-79
2024/04/07 07:26:58;;;;;;;5.10;1.60;;;16.70;33.90;;;;;;4995013;28;20175;-83
2024/04/07 07:29:24;;;;;;;4.80;1.60;;;16.80;31.70;;;;;;4994901;28;20205;-81
2024/04/07 07:31:50;;;;;;;4.93;1.60;;;16.90;27.40;;;;;;4994960;28;20253;-80
2024/04/07 07:34:15;;;;;;;5.93;1.40;;;17.00;28.10;;;;;;4993771;28;20247;-80
2024/04/07 07:36:41;;;;;;;4.37;1.40;;;16.90;27.60;;;;;;4994231;28;20214;-82
2024/04/07 07:39:07;;;;;;;4.70;1.63;;;17.00;27.10;;;;;;4995392;28;20171;-86
2024/04/07 07:41:33;;;;;;;4.03;1.40;;;17.00;26.20;;;;;;4995903;28;20182;-77
2024/04/07 07:43:58;;;;;;;5.87;1.47;;;17.00;25.70;;;;;;4994340;28;20174;-82
2024/04/07 07:46:24;;;;;;;4.07;1.40;;;17.10;24.90;;;;;;4993898;28;20596;-80
2024/04/07 07:48:50;;;;;;;6.67;1.73;;;17.10;22.30;;;;;;4994596;28;20193;-79
2024/04/07 07:51:17;;;;;;;3.80;1.40;;;17.20;23.50;;;;;;4993986;28;20705;-77
2024/04/07 07:53:42;;;;;;;6.33;1.40;;;17.30;20.20;;;;;;4994445;28;20602;-79
2024/04/07 07:56:09;;;;;;;4.20;1.70;;;17.30;18.30;;;;;;4994039;28;20205;-79
2024/04/07 07:58:36;;;;;;;4.50;1.63;;;17.30;18.80;;;;;;4994226;28;20529;-82
2024/04/07 08:01:02;;;;;;;3.23;1.20;;;17.50;17.10;;;;;;4992983;28;20230;-78
2024/04/07 08:03:28;;;;;;;2.97;1.30;;;17.60;11.00;;;;;;4999138;28;20181;-79
2024/04/07 08:05:54;;;;;;;5.30;1.50;;;17.50;10.20;;;;;;5012483;28;20194;-78
2024/04/07 08:08:20;;;;;;;4.03;1.03;;;17.50;11.40;;;;;;5012902;28;20186;-81
2024/04/07 08:10:46;;;;;;;4.07;1.53;;;17.40;12.00;;;;;;5012810;28;20170;-78
2024/04/07 08:13:13;;;;;;;4.23;1.33;;;17.50;13.30;;;;;;5012694;28;20242;-81
2024/04/07 08:15:39;;;;;;;4.10;1.47;;;17.70;10.30;;;;;;5012791;28;20559;-81
2024/04/07 08:18:04;;;;;;;3.70;1.43;;;17.80;8.60;;;;;;5011782;28;20182;-78
2024/04/07 08:20:30;;;;;;;5.57;1.60;;;17.70;6.20;;;;;;5012291;28;20177;-84
2024/04/07 08:22:56;;;;;;;5.17;1.40;;;17.70;7.40;;;;;;5013437;28;20179;-79
2024/04/07 08:25:22;;;;;;;5.47;1.33;;;17.90;6.50;;;;;;5012843;28;20263;-77
2024/04/07 08:27:47;;;;;;;5.17;1.40;;;17.80;6.30;;;;;;5011645;28;20189;-78
2024/04/07 08:30:13;;;;;;;5.30;1.60;;;17.70;5.30;;;;;;5013272;28;20613;-79
2024/04/07 08:32:38;;;;;;;4.50;1.57;;;17.60;7.60;;;;;;5012186;28;20713;-78
2024/04/07 08:35:04;;;;;;;3.80;1.23;;;17.60;9.60;;;;;;5012020;28;20165;-83
2024/04/07 08:37:30;;;;;;;2.97;1.10;;;17.70;8.50;;;;;;5012942;28;20666;-79
2024/04/07 08:39:55;;;;;;;3.00;1.33;;;17.80;2.90;;;;;;5013215;28;20193;-83
2024/04/07 08:42:22;;;;;;;4.00;1.47;;;17.80;1.00;;;;;;5010119;28;20539;-81
2024/04/07 08:44:49;;;;;;;4.20;1.53;;;17.90;1.00;;;;;;5012869;28;20167;-79
2024/04/07 08:47:17;;;;;;;5.17;1.50;;;18.00;1.00;;;;;;4998641;28;20171;-78
2024/04/07 08:49:44;;;;;;;5.10;1.70;;;18.00;1.00;;;;;;4992865;28;20189;-84
2024/04/07 08:52:10;;;;;;;5.17;1.53;;;18.10;1.00;;;;;;4995127;28;20275;-81
2024/04/07 08:54:37;;;;;;;3.50;1.33;;;18.10;1.00;;;;;;5027529;28;20173;-79
2024/04/07 08:57:08;;;;;;;4.27;1.43;;;18.20;1.00;;;;;;5031642;28;20219;-79
2024/04/07 08:59:35;;;;;;;4.20;1.40;;;18.30;1.00;;;;;;5032547;28;20163;-77
2024/04/07 09:02:03;;;;;;;3.90;1.30;;;18.40;1.00;;;;;;5032506;28;20189;-79
2024/04/07 09:04:32;;;;;;;4.43;1.33;;;18.50;1.00;;;;;;5031053;28;20345;-82
2024/04/07 09:06:59;;;;;;;4.33;1.40;;;18.50;1.00;;;;;;5027045;28;20705;-82
2024/04/07 09:09:25;;;;;;;4.27;1.30;;;18.40;1.00;;;;;;5021879;28;20631;-81
2024/04/07 09:11:51;;;;;;;4.60;1.50;;;18.30;1.00;;;;;;5031515;28;20191;-84
2024/04/07 09:14:18;;;;;;;2.93;1.20;;;18.40;1.00;;;;;;5031688;28;20612;-80
2024/04/07 09:16:43;;;;;;;4.27;1.80;;;18.50;1.00;;;;;;5016274;28;20264;-79
2024/04/07 09:19:10;;;;;;;5.60;2.00;;;18.70;1.00;;;;;;5011570;28;20202;-85
2024/04/07 09:21:36;;;;;;;5.73;1.53;;;18.90;1.00;;;;;;5010052;28;20305;-79
2024/04/07 09:24:02;;;;;;;5.77;1.40;;;18.90;1.00;;;;;;5011858;28;20646;-83
2024/04/07 09:26:27;;;;;;;3.30;1.40;;;18.90;1.00;;;;;;5012081;28;20623;-82
2024/04/07 09:28:53;;;;;;;4.57;1.60;;;18.80;1.00;;;;;;5011631;28;20197;-81
2024/04/07 09:31:19;;;;;;;2.93;1.00;;;18.80;1.00;;;;;;5010673;28;20209;-81
2024/04/07 09:33:47;;;;;;;2.40;1.30;;;18.80;1.00;;;;;;5009447;28;20177;-79
2024/04/07 09:36:13;;;;;;;3.97;1.30;;;18.70;1.00;;;;;;5011431;28;20568;-79
2024/04/07 09:38:39;;;;;;;4.23;1.40;;;18.80;1.00;;;;;;5011644;28;20701;-78
2024/04/07 09:41:04;;;;;;;3.77;1.20;;;18.80;1.00;;;;;;5011518;28;20173;-79
2024/04/07 09:43:31;;;;;;;3.93;1.47;;;18.90;1.00;;;;;;5011422;28;20622;-80
2024/04/07 09:45:57;;;;;;;4.53;1.60;;;19.00;1.00;;;;;;5012646;28;20178;-80
2024/04/07 09:48:25;;;;;;;4.60;1.30;;;19.20;1.00;;;;;;5013103;28;20170;-86
2024/04/07 09:51:10;;;;;;;5.60;1.40;;;19.20;1.00;;;;;;5014551;28;20544;-82
2024/04/07 09:53:46;;;;;;;2.93;1.20;;;19.20;1.00;;;;;;5015874;28;20187;-81
2024/04/07 09:56:15;;;;;;;3.97;1.13;;;19.20;1.00;;;;;;5015161;28;20207;-81
2024/04/07 09:58:41;;;;;;;5.27;1.20;;;19.10;1.00;;;;;;5046544;28;20174;-84
2024/04/07 10:01:09;;;;;;;3.17;1.27;;;19.20;1.00;;;;;;5014562;28;20252;-81
2024/04/07 10:03:35;;;;;;;2.83;1.10;;;19.20;1.00;;;;;;5014241;28;20169;-82
2024/04/07 10:06:02;;;;;;;3.37;1.23;;;19.30;1.00;;;;;;5014237;28;20189;-82
2024/04/07 10:08:29;;;;;;;2.63;1.07;;;19.20;1.00;;;;;;5014626;28;20184;-82
2024/04/07 10:10:55;;;;;;;3.33;1.10;;;19.20;1.00;;;;;;5014812;28;20170;-82
2024/04/07 10:13:24;;;;;;;3.73;1.43;;;19.30;1.00;;;;;;5015645;28;20248;-80
2024/04/07 10:15:54;;;;;;;8.60;1.30;;;19.50;1.00;;;;;;5014819;28;20197;-81
2024/04/07 10:18:20;;;;;;;3.30;1.27;;;19.60;1.00;;;;;;5014678;28;20174;-81
2024/04/07 10:20:55;;;;;;;4.67;1.40;;;19.70;1.00;;;;;;5015171;28;20258;-82
2024/04/07 10:23:26;;;;;;;3.97;2.13;;;19.70;1.00;;;;;;5015758;28;20184;-79
2024/04/07 10:25:59;;;;;;;2.43;1.30;;;19.70;1.00;;;;;;5014139;28;20432;-79
2024/04/07 10:28:25;;;;;;;3.77;1.07;;;19.50;1.00;;;;;;5046025;28;20211;-82
2024/04/07 10:30:56;;;;;;;3.60;1.50;;;19.50;1.00;;;;;;5015375;28;20658;-81
2024/04/07 10:33:27;;;;;;;2.83;1.13;;;19.60;1.00;;;;;;5014656;28;20189;-84
2024/04/07 10:35:56;;;;;;;3.00;1.13;;;19.80;1.00;;;;;;5012726;28;20233;-78
2024/04/07 10:38:23;;;;;;;2.10;1.17;;;19.90;1.00;;;;;;5047172;28;20196;-82
2024/04/07 10:40:55;;;;;;;2.90;1.20;;;20.00;1.00;;;;;;5014579;28;20626;-83
2024/04/07 10:43:21;;;;;;;2.67;1.33;;;20.00;1.00;;;;;;5046116;28;20540;-83
2024/04/07 10:45:48;;;;;;;2.77;1.13;;;20.10;1.00;;;;;;5014668;28;20177;-80
2024/04/07 10:48:13;;;;;;;3.67;1.30;;;20.20;1.00;;;;;;5015360;28;20173;-82
2024/04/07 10:50:39;;;;;;;3.80;1.13;;;20.30;1.00;;;;;;5014589;28;20618;-81
2024/04/07 10:53:08;;;;;;;3.37;1.20;;;20.30;1.00;;;;;;5014615;28;20640;-80
2024/04/07 10:55:34;;;;;;;5.53;3.60;;;20.30;1.00;;;;;;5014700;28;20278;-80
2024/04/07 10:58:00;;;;;;;3.37;1.60;;;20.40;1.00;;;;;;5015071;28;20178;-81
2024/04/07 11:00:26;;;;;;;3.87;2.73;;;20.30;1.00;;;;;;5013738;28;20171;-80
2024/04/07 11:02:53;;;;;;;3.57;1.70;;;20.20;1.00;;;;;;5014253;28;20181;-80
2024/04/07 11:05:18;;;;;;;4.33;1.67;;;20.20;1.00;;;;;;5014635;28;20213;-81
2024/04/07 11:07:46;;;;;;;5.43;1.30;;;20.20;1.00;;;;;;5014063;28;20205;-83
2024/04/07 11:10:12;;;;;;;4.23;1.10;;;20.30;1.00;;;;;;5014086;28;20229;-78
2024/04/07 11:12:44;;;;;;;3.93;1.37;;;20.30;1.00;;;;;;5013852;28;20839;-82
2024/04/07 11:15:22;;;;;;;1.87;0.83;;;20.30;1.00;;;;;;5013972;28;20189;-78
2024/04/07 11:17:48;;;;;;;3.40;0.87;;;20.40;1.00;;;;;;5013624;28;20177;-80
2024/04/07 11:20:13;;;;;;;2.13;0.90;;;20.40;1.00;;;;;;5014076;28;20530;-80
2024/04/07 11:22:39;;;;;;;3.90;1.07;;;20.30;1.00;;;;;;5013660;28;20254;-78
2024/04/07 11:25:05;;;;;;;4.10;1.07;;;20.30;1.00;;;;;;5014611;28;20184;-81
2024/04/07 11:27:32;;;;;;;4.60;1.10;;;20.40;1.00;;;;;;5013600;28;20177;-79
2024/04/07 11:30:01;;;;;;;3.77;1.20;;;20.50;1.00;;;;;;5013148;28;20162;-78
2024/04/07 11:32:30;;;;;;;3.20;1.00;;;20.70;1.00;;;;;;5013825;28;20193;-80
2024/04/07 11:34:55;;;;;;;2.53;1.20;;;20.80;1.00;;;;;;5013755;28;20168;-80
2024/04/07 11:37:21;;;;;;;2.13;1.13;;;20.70;1.00;;;;;;5012389;28;20604;-81
2024/04/07 11:39:51;;;;;;;2.43;1.00;;;20.80;1.00;;;;;;5012688;28;20187;-80
2024/04/07 11:42:18;;;;;;;1.87;0.90;;;20.90;1.00;;;;;;5013957;28;20193;-79
2024/04/07 11:44:44;;;;;;;2.63;0.97;;;20.80;1.00;;;;;;5012977;28;20163;-80
2024/04/07 11:47:10;;;;;;;1.40;0.70;;;20.80;1.00;;;;;;5012499;28;20242;-80
2024/04/07 11:49:36;;;;;;;3.23;0.93;;;20.70;1.00;;;;;;5012091;28;20186;-82
2024/04/07 11:52:01;;;;;;;1.97;0.73;;;20.60;1.00;;;;;;5014780;28;20168;-82
2024/04/07 11:54:27;;;;;;;2.03;0.77;;;20.50;1.00;;;;;;5014169;28;20238;-79
2024/04/07 11:56:53;;;;;;;1.53;0.90;;;20.60;1.00;;;;;;5013229;28;20724;-80
2024/04/07 11:59:19;;;;;;;2.13;0.80;;;20.70;1.00;;;;;;5011860;28;20174;-82
2024/04/07 12:01:45;;;;;;;2.27;0.90;;;20.80;1.00;;;;;;5013356;28;20258;-82
2024/04/07 12:04:10;;;;;;;2.97;0.93;;;20.80;1.00;;;;;;5012945;28;20166;-80
2024/04/07 12:06:36;;;;;;;3.03;0.90;;;20.80;1.00;;;;;;5012289;28;20209;-83
2024/04/07 12:09:04;;;;;;;1.97;0.80;;;20.80;1.00;;;;;;5012670;28;20628;-85
2024/04/07 12:11:30;;;;;;;2.83;0.90;;;20.90;1.00;;;;;;5012545;28;20169;-83
2024/04/07 12:13:55;;;;;;;3.30;1.20;;;20.80;1.00;;;;;;5013712;28;20224;-81
2024/04/07 12:16:21;;;;;;;3.53;1.40;;;20.70;1.00;;;;;;5012127;28;20702;-81
2024/04/07 12:18:46;;;;;;;2.53;1.20;;;20.80;1.00;;;;;;5013402;28;20180;-79
2024/04/07 12:21:12;;;;;;;1.90;0.97;;;20.80;1.00;;;;;;5013448;28;20687;-80
2024/04/07 12:23:38;;;;;;;2.90;1.80;;;20.80;1.00;;;;;;5012751;28;20598;-82
2024/04/07 12:26:03;;;;;;;2.13;1.30;;;20.70;1.00;;;;;;5013014;28;20629;-81
2024/04/07 12:28:29;;;;;;;2.73;0.90;;;20.80;1.00;;;;;;5011551;28;20622;-80
2024/04/07 12:30:55;;;;;;;2.57;1.30;;;21.00;1.00;;;;;;5013198;28;20261;-81
2024/04/07 12:33:21;;;;;;;3.27;1.47;;;21.10;1.00;;;;;;5013726;28;20193;-83
2024/04/07 12:35:49;;;;;;;1.83;1.20;;;21.20;1.00;;;;;;5012397;28;20529;-79
2024/04/07 12:38:15;;;;;;;2.60;1.30;;;21.10;1.00;;;;;;5011888;28;20178;-80
2024/04/07 12:40:41;;;;;;;3.40;1.80;;;21.20;1.00;;;;;;5012697;28;20174;-82
2024/04/07 12:43:07;;;;;;;2.93;1.27;;;21.30;1.00;;;;;;5012842;28;20184;-79
2024/04/07 12:45:34;;;;;;;4.93;1.60;;;21.30;1.00;;;;;;5013067;28;20534;-82
2024/04/07 12:48:00;;;;;;;4.17;1.57;;;21.30;1.00;;;;;;5012142;28;20177;-84
2024/04/07 12:50:27;;;;;;;3.20;1.47;;;21.30;1.00;;;;;;5011361;28;20565;-80
2024/04/07 12:52:53;;;;;;;5.93;1.47;;;21.30;1.00;;;;;;5012492;28;20520;-80